Time;durP1;ratioP1;P1;durP2;ratioP2;P2;SDS_P1;SDS_P2;PMS_P1;PMS_P2;Temp;Humidity;BMP_temperature;BMP_pressure;BME280_temperature;BME280_humidity;BME280_pressure;Samples;Min_cycle;Max_cycle;Signal;HPM_P1;HPM_P2
2022/10/05 00:01:40;;;;;;;10.20;3.70;;;;;;;9.46;95.09;99673.41;108547;1283;22460;-63
2022/10/05 00:04:10;;;;;;;;;;;;;;;9.47;95.21;99673.16;108544;1282;22494;-63
2022/10/05 00:06:37;;;;;;;6.00;3.20;;;;;;;9.48;95.06;99676.00;109269;1276;22407;-63
2022/10/05 00:09:12;;;;;;;;;;;;;;;9.48;95.19;99677.86;109445;1273;22589;-63
2022/10/05 00:11:38;;;;;;;5.00;3.30;;;;;;;9.49;95.18;99681.95;109300;1273;22430;-62
2022/10/05 00:14:26;;;;;;;;;;;;;;;9.50;95.14;99683.21;109456;1274;22492;-62
2022/10/05 00:16:54;;;;;;;7.30;3.70;;;;;;;9.50;95.22;99684.59;109469;1273;22451;-61
2022/10/05 00:19:27;;;;;;;5.50;3.00;;;;;;;9.50;95.01;99689.48;109426;1273;22479;-62
2022/10/05 00:22:29;;;;;;;7.60;4.00;;;;;;;9.51;95.05;99696.40;109328;1273;22463;-61
2022/10/05 00:24:57;;;;;;;5.00;3.70;;;;;;;9.53;95.18;99699.85;109364;1273;23416;-62
2022/10/05 00:27:26;;;;;;;5.00;3.70;;;;;;;9.54;95.20;99705.48;109305;1272;22592;-62
2022/10/05 00:29:53;;;;;;;5.40;3.20;;;;;;;9.55;94.97;99701.52;109202;1274;22454;-61
2022/10/05 00:32:20;;;;;;;3.80;3.10;;;;;;;9.57;94.82;99704.75;109086;1274;22440;-61
2022/10/05 00:34:46;;;;;;;4.50;3.40;;;;;;;9.57;94.77;99707.91;109422;1273;22547;-61
2022/10/05 00:37:13;;;;;;;;;;;;;;;9.58;94.99;99706.73;109258;1274;22479;-61
2022/10/05 00:39:40;;;;;;;5.20;3.40;;;;;;;9.60;94.78;99710.89;108347;1274;25198;-62
2022/10/05 00:42:26;;;;;;;;;;;;;;;9.58;94.69;99710.27;104879;1274;22902;-63
2022/10/05 00:44:54;;;;;;;5.30;3.20;;;;;;;9.58;94.65;99713.80;109285;1273;22538;-64
2022/10/05 00:47:30;;;;;;;3.20;2.90;;;;;;;9.58;94.63;99715.48;109372;1273;23708;-64
2022/10/05 00:50:16;;;;;;;5.10;3.10;;;;;;;9.58;94.68;99719.24;109454;1273;23106;-64
2022/10/05 00:53:01;;;;;;;5.60;3.10;;;;;;;9.58;94.57;99722.94;109401;1274;22526;-64
2022/10/05 00:55:43;;;;;;;4.60;2.50;;;;;;;9.58;94.48;99728.83;109218;1274;22478;-64
2022/10/05 00:58:29;;;;;;;7.40;3.20;;;;;;;9.59;94.44;99734.13;109294;1274;22440;-64
2022/10/05 01:01:08;;;;;;;5.60;3.10;;;;;;;9.61;94.46;99738.87;109370;1273;23213;-65
2022/10/05 01:03:41;;;;;;;4.60;3.20;;;;;;;9.62;94.27;99743.58;109390;1273;22457;-64
2022/10/05 01:06:30;;;;;;;5.10;2.70;;;;;;;9.63;94.22;99746.11;109415;1273;22558;-65
2022/10/05 01:09:19;;;;;;;5.20;3.30;;;;;;;9.64;94.13;99749.55;109333;1274;22512;-64
2022/10/05 01:12:01;;;;;;;3.30;3.00;;;;;;;9.65;93.96;99753.75;109359;1273;22465;-64
2022/10/05 01:14:38;;;;;;;5.50;2.90;;;;;;;9.65;93.78;99763.17;109289;1274;22582;-64
2022/10/05 01:17:09;;;;;;;6.10;3.10;;;;;;;9.64;93.56;99762.08;109398;1273;22648;-64
2022/10/05 01:19:49;;;;;;;5.60;3.20;;;;;;;9.63;93.55;99771.24;109423;1273;22906;-65
2022/10/05 01:22:26;;;;;;;4.50;2.60;;;;;;;9.63;93.53;99777.94;109321;1274;23185;-65
2022/10/05 01:25:04;;;;;;;4.80;2.70;;;;;;;9.62;93.28;99779.71;109351;1274;22268;-65
2022/10/05 01:27:53;;;;;;;5.60;3.20;;;;;;;9.62;93.20;99780.90;109402;1273;22404;-64
2022/10/05 01:30:20;;;;;;;9.40;3.20;;;;;;;9.61;93.24;99788.63;109416;1273;22440;-64
2022/10/05 01:32:58;;;;;;;4.90;2.70;;;;;;;9.61;92.99;99789.05;109312;1273;23586;-64
2022/10/05 01:35:29;;;;;;;8.10;3.60;;;;;;;9.59;92.80;99796.36;109400;1273;23457;-64
2022/10/05 01:38:21;;;;;;;3.90;2.60;;;;;;;9.58;92.69;99798.02;109400;1273;22460;-64
2022/10/05 01:41:18;;;;;;;3.40;2.50;;;;;;;9.57;92.52;99801.66;106229;1274;24257;-60
2022/10/05 01:43:49;;;;;;;4.70;2.60;;;;;;;9.57;92.37;99802.96;109239;1273;22462;-61
2022/10/05 01:46:52;;;;;;;5.40;3.20;;;;;;;9.55;92.39;99809.50;109317;1274;23218;-61
2022/10/05 01:49:34;;;;;;;4.90;3.00;;;;;;;9.54;92.18;99814.59;109030;1279;23037;-61
2022/10/05 01:52:10;;;;;;;4.40;2.70;;;;;;;9.52;92.01;99816.90;108833;1280;22489;-61
2022/10/05 01:54:49;;;;;;;4.50;2.60;;;;;;;9.51;92.02;99819.61;108737;1280;22464;-61
2022/10/05 01:57:53;;;;;;;5.10;2.90;;;;;;;9.50;92.08;99830.43;108997;1280;22540;-62
2022/10/05 02:00:20;;;;;;;5.90;2.90;;;;;;;9.47;91.76;99829.15;108988;1279;22432;-62
2022/10/05 02:02:51;;;;;;;4.70;2.90;;;;;;;9.45;91.86;99830.36;109034;1279;23444;-61
2022/10/05 02:05:20;;;;;;;4.00;2.80;;;;;;;9.44;91.99;99832.48;108821;1280;23275;-62
2022/10/05 02:07:59;;;;;;;4.50;2.90;;;;;;;9.42;91.76;99834.52;108842;1280;22850;-62
2022/10/05 02:10:47;;;;;;;5.40;3.10;;;;;;;9.41;91.72;99843.40;108739;1280;22442;-62
2022/10/05 02:13:17;;;;;;;3.20;2.50;;;;;;;9.39;91.70;99845.91;108754;1279;22435;-61
2022/10/05 02:15:47;;;;;;;5.90;3.10;;;;;;;9.36;91.54;99850.44;108969;1280;22455;-61
2022/10/05 02:18:18;;;;;;;5.70;2.60;;;;;;;9.35;91.64;99853.73;108853;1280;22474;-61
2022/10/05 02:20:45;;;;;;;5.90;3.00;;;;;;;9.34;91.56;99860.52;108878;1278;22487;-61
2022/10/05 02:23:24;;;;;;;4.60;2.90;;;;;;;9.34;91.61;99864.21;108989;1278;22478;-62
2022/10/05 02:25:51;;;;;;;4.10;2.50;;;;;;;9.32;91.46;99863.40;109431;1271;22479;-61
2022/10/05 02:28:26;;;;;;;5.80;2.60;;;;;;;9.32;91.51;99868.94;109481;1271;23200;-61
2022/10/05 02:31:03;;;;;;;6.00;2.80;;;;;;;9.30;91.38;99874.19;109440;1273;22494;-61
2022/10/05 02:33:32;;;;;;;4.40;2.50;;;;;;;9.30;91.53;99874.50;109467;1271;22422;-61
2022/10/05 02:36:15;;;;;;;4.50;2.90;;;;;;;9.29;91.49;99874.59;109470;1271;22420;-61
2022/10/05 02:38:53;;;;;;;4.10;3.20;;;;;;;9.28;91.55;99872.89;109459;1271;22449;-61
2022/10/05 02:41:59;;;;;;;7.50;2.70;;;;;;;9.27;91.34;99877.69;105488;1273;22592;-59
2022/10/05 02:44:32;;;;;;;7.80;2.60;;;;;;;9.25;91.34;99882.11;105062;1271;22709;-59
2022/10/05 02:47:11;;;;;;;5.80;2.80;;;;;;;9.25;91.54;99883.58;104965;1273;22562;-59
2022/10/05 02:49:43;;;;;;;4.80;3.40;;;;;;;9.25;91.66;99882.11;105006;1273;23295;-59
2022/10/05 02:52:17;;;;;;;5.20;3.40;;;;;;;9.24;91.59;99883.56;104960;1273;24406;-59
2022/10/05 02:55:03;;;;;;;4.80;3.70;;;;;;;9.23;91.57;99876.92;105203;1271;22556;-59
2022/10/05 02:57:39;;;;;;;6.30;3.00;;;;;;;9.23;91.45;99875.02;105243;1273;24529;-59
2022/10/05 03:00:14;;;;;;;6.50;3.00;;;;;;;9.22;91.49;99879.14;105091;1272;22614;-59
2022/10/05 03:03:08;;;;;;;6.60;3.20;;;;;;;9.21;91.58;99878.80;109528;1271;22484;-60
2022/10/05 03:05:38;;;;;;;5.50;2.70;;;;;;;9.22;91.48;99881.54;109469;1271;22419;-61
2022/10/05 03:08:28;;;;;;;6.60;3.70;;;;;;;9.22;91.56;99882.24;109436;1272;22430;-61
2022/10/05 03:11:21;;;;;;;11.00;3.40;;;;;;;9.22;91.59;99883.33;109439;1271;22464;-61
2022/10/05 03:14:08;;;;;;;5.10;2.60;;;;;;;9.22;91.55;99882.23;109320;1273;22457;-61
2022/10/05 03:17:00;;;;;;;5.40;3.00;;;;;;;9.20;91.42;99884.11;109498;1272;23287;-61
2022/10/05 03:19:50;;;;;;;4.70;3.30;;;;;;;9.20;91.29;99889.92;109467;1271;22463;-61
2022/10/05 03:22:39;;;;;;;3.70;2.90;;;;;;;9.19;91.28;99898.86;109346;1271;22520;-61
2022/10/05 03:25:24;;;;;;;3.50;3.00;;;;;;;9.18;91.33;99908.63;109494;1271;23061;-61
2022/10/05 03:28:15;;;;;;;4.50;2.60;;;;;;;9.17;91.19;99914.53;109528;1271;22546;-60
2022/10/05 03:31:19;;;;;;;5.00;2.40;;;;;;;9.15;91.30;99920.14;109595;1270;22415;-61
2022/10/05 03:34:00;;;;;;;3.90;2.60;;;;;;;9.14;91.33;99915.67;109489;1271;22472;-61
2022/10/05 03:37:06;;;;;;;5.30;3.30;;;;;;;9.14;91.32;99909.95;109223;1271;22508;-62
2022/10/05 03:39:38;;;;;;;7.50;3.00;;;;;;;9.12;91.27;99909.26;109063;1276;22620;-62
2022/10/05 03:42:23;;;;;;;5.00;3.20;;;;;;;9.12;91.24;99917.84;109034;1278;22442;-62
2022/10/05 03:45:04;;;;;;;4.80;2.70;;;;;;;9.11;91.30;99922.98;108762;1277;23302;-62
2022/10/05 03:47:49;;;;;;;7.80;2.50;;;;;;;9.12;91.25;99923.27;108716;1280;22268;-62
2022/10/05 03:50:39;;;;;;;5.00;2.40;;;;;;;9.10;91.09;99927.95;109032;1277;22576;-62
2022/10/05 03:53:22;;;;;;;7.60;2.90;;;;;;;9.09;90.97;99928.98;108998;1280;22566;-62
2022/10/05 03:55:51;;;;;;;5.00;3.10;;;;;;;9.08;91.10;99927.67;108808;1279;22475;-62
2022/10/05 03:58:30;;;;;;;4.00;2.80;;;;;;;9.09;91.15;99928.49;108838;1277;22557;-62
2022/10/05 04:01:02;;;;;;;7.60;3.40;;;;;;;9.10;90.99;99925.95;108841;1277;22552;-62
2022/10/05 04:03:42;;;;;;;5.40;3.70;;;;;;;9.09;90.98;99929.86;108826;1277;23280;-62
2022/10/05 04:06:12;;;;;;;4.80;3.00;;;;;;;9.09;90.95;99932.35;108869;1277;22457;-62
2022/10/05 04:08:49;;;;;;;7.10;2.80;;;;;;;9.07;90.92;99932.05;108945;1279;22468;-62
2022/10/05 04:11:25;;;;;;;3.30;2.90;;;;;;;9.07;91.06;99931.92;108836;1277;22566;-62
2022/10/05 04:14:14;;;;;;;6.60;3.00;;;;;;;9.06;90.85;99935.45;108822;1280;22402;-61
2022/10/05 04:16:45;;;;;;;15.20;3.70;;;;;;;9.05;90.87;99940.53;109060;1273;22279;-61
2022/10/05 04:19:18;;;;;;;7.20;4.30;;;;;;;9.04;90.99;99939.26;109616;1271;22552;-61
2022/10/05 04:21:56;;;;;;;8.90;5.00;;;;;;;9.03;91.04;99940.27;109465;1271;22542;-62
2022/10/05 04:24:27;;;;;;;21.80;7.30;;;;;;;9.01;90.96;99943.86;109558;1271;22495;-61
2022/10/05 04:27:02;;;;;;;20.90;7.90;;;;;;;9.00;91.03;99938.40;109420;1271;23163;-62
2022/10/05 04:29:31;;;;;;;16.10;6.20;;;;;;;8.99;91.10;99939.80;109480;1271;22484;-62
2022/10/05 04:32:26;;;;;;;27.30;10.40;;;;;;;8.99;91.19;99944.95;109482;1271;22410;-62
2022/10/05 04:35:02;;;;;;;22.60;9.80;;;;;;;8.98;90.95;99951.89;109494;1273;22428;-61
2022/10/05 04:38:06;;;;;;;19.40;7.80;;;;;;;8.97;91.05;99954.84;109566;1270;22455;-60
2022/10/05 04:40:40;;;;;;;24.40;9.10;;;;;;;8.96;91.21;99959.45;106850;1273;22573;-59
2022/10/05 04:43:17;;;;;;;18.90;8.30;;;;;;;8.97;91.35;99966.80;109460;1272;23103;-60
2022/10/05 04:46:06;;;;;;;18.00;7.40;;;;;;;8.96;91.36;99969.29;109496;1271;22518;-60
2022/10/05 04:49:12;;;;;;;8.00;4.20;;;;;;;8.97;91.63;99970.55;109362;1271;22455;-60
2022/10/05 04:51:45;;;;;;;5.90;3.80;;;;;;;8.98;91.68;99968.45;109176;1277;22451;-60
2022/10/05 04:54:51;;;;;;;3.80;2.80;;;;;;;8.99;91.87;99974.95;108724;1277;22477;-60
2022/10/05 04:57:37;;;;;;;8.60;3.60;;;;;;;9.01;91.92;99978.27;109110;1277;22490;-61
2022/10/05 05:00:25;;;;;;;8.20;3.10;;;;;;;9.03;91.97;99987.07;108921;1277;22518;-60
2022/10/05 05:03:19;;;;;;;5.00;3.30;;;;;;;9.05;92.11;99991.84;109026;1277;23276;-61
2022/10/05 05:05:58;;;;;;;8.00;3.40;;;;;;;9.06;92.06;99997.09;108975;1277;22693;-61
2022/10/05 05:08:56;;;;;;;7.60;3.10;;;;;;;9.07;92.01;100005.02;108938;1277;22470;-62
2022/10/05 05:11:50;;;;;;;5.60;2.50;;;;;;;9.10;92.06;100011.95;109156;1277;22540;-62
2022/10/05 05:14:37;;;;;;;13.80;9.00;;;;;;;9.11;92.08;100016.59;109074;1277;22604;-68
2022/10/05 05:17:17;;;;;;;13.90;8.50;;;;;;;9.12;92.14;100019.41;108949;1280;22325;-61
2022/10/05 05:20:19;;;;;;;6.70;3.50;;;;;;;9.16;92.17;100016.94;109109;1277;22491;-61
2022/10/05 05:23:02;;;;;;;5.80;3.50;;;;;;;9.19;92.06;100018.39;108422;1284;23639;-61
2022/10/05 05:26:04;;;;;;;10.90;4.00;;;;;;;9.24;92.01;100024.40;108307;1278;22493;-61
2022/10/05 05:28:50;;;;;;;8.90;4.80;;;;;;;9.28;91.91;100027.60;108965;1278;22406;-61
2022/10/05 05:31:37;;;;;;;7.90;4.20;;;;;;;9.32;91.97;100028.40;109060;1277;24014;-61
2022/10/05 05:34:42;;;;;;;6.80;3.40;;;;;;;9.34;91.85;100029.45;109051;1277;23281;-61
2022/10/05 05:37:17;;;;;;;8.40;4.00;;;;;;;9.38;91.75;100033.80;108505;1282;22452;-61
2022/10/05 05:39:53;;;;;;;7.20;3.40;;;;;;;9.40;91.64;100032.88;108409;1284;22276;-62
2022/10/05 05:42:44;;;;;;;4.50;3.50;;;;;;;9.42;91.33;100034.81;108437;1283;22457;-61
2022/10/05 05:45:16;;;;;;;6.20;3.40;;;;;;;9.44;91.25;100035.08;108351;1284;23366;-60
2022/10/05 05:47:50;;;;;;;3.60;3.00;;;;;;;9.46;91.28;100037.67;108335;1283;22423;-60
2022/10/05 05:50:33;;;;;;;7.50;3.60;;;;;;;9.48;91.02;100043.58;108446;1284;22456;-61
2022/10/05 05:53:23;;;;;;;3.60;2.60;;;;;;;9.52;90.97;100048.05;108227;1284;23221;-61
2022/10/05 05:56:21;;;;;;;6.50;3.30;;;;;;;9.53;90.70;100049.60;108406;1284;22348;-61
2022/10/05 05:58:51;;;;;;;6.40;3.60;;;;;;;9.54;90.44;100052.77;107986;1288;22559;-61
2022/10/05 06:01:21;;;;;;;6.50;3.70;;;;;;;9.55;90.29;100061.89;108307;1284;22590;-61
2022/10/05 06:04:02;;;;;;;7.80;4.00;;;;;;;9.57;90.21;100062.73;108411;1284;22750;-61
2022/10/05 06:06:30;;;;;;;8.20;4.10;;;;;;;9.58;90.01;100064.39;108270;1285;23314;-61
2022/10/05 06:09:00;;;;;;;6.20;3.40;;;;;;;9.60;89.84;100068.46;108497;1283;22680;-61
2022/10/05 06:11:42;;;;;;;;;;;;;;;9.62;89.61;100066.98;108384;1279;22634;-61
2022/10/05 06:14:15;;;;;;;5.90;4.00;;;;;;;9.63;89.30;100070.34;108888;1279;23316;-61
2022/10/05 06:16:48;;;;;;;8.60;4.20;;;;;;;9.65;88.90;100071.09;108558;1281;22478;-60
2022/10/05 06:19:17;;;;;;;34.30;22.40;;;;;;;9.66;88.47;100085.59;108609;1281;23524;-60
2022/10/05 06:21:51;;;;;;;10.10;6.10;;;;;;;9.68;88.52;100087.80;108678;1278;22573;-61
2022/10/05 06:24:35;;;;;;;9.90;4.20;;;;;;;9.73;88.33;100085.58;108915;1279;22490;-61
2022/10/05 06:27:21;;;;;;;9.80;5.00;;;;;;;9.77;88.05;100092.96;108691;1281;22480;-62
2022/10/05 06:29:53;;;;;;;4.50;3.30;;;;;;;9.81;87.98;100096.36;108764;1281;23661;-62
2022/10/05 06:32:28;;;;;;;7.00;3.10;;;;;;;9.87;87.85;100095.83;108553;1279;22537;-62
2022/10/05 06:35:09;;;;;;;5.10;3.30;;;;;;;9.92;87.60;100104.02;108990;1271;22426;-62
2022/10/05 06:37:39;;;;;;;5.40;3.00;;;;;;;9.97;87.41;100103.70;109452;1272;22508;-63
2022/10/05 06:40:10;;;;;;;4.70;2.50;;;;;;;9.99;86.70;100108.52;107679;1273;22676;-64
2022/10/05 06:42:45;;;;;;;6.30;3.30;;;;;;;10.00;86.14;100109.55;105030;1274;22734;-60
2022/10/05 06:45:45;;;;;;;4.20;2.90;;;;;;;10.02;86.40;100112.98;109415;1271;22482;-61
2022/10/05 06:48:45;;;;;;;7.30;3.50;;;;;;;10.06;86.27;100110.19;109456;1272;22489;-61
2022/10/05 06:51:46;;;;;;;7.20;3.30;;;;;;;10.11;86.14;100110.39;109451;1271;22526;-61
2022/10/05 06:54:20;;;;;;;7.40;2.70;;;;;;;10.15;85.80;100113.14;109662;1271;22491;-61
2022/10/05 06:57:11;;;;;;;5.00;2.90;;;;;;;10.19;85.65;100111.70;109534;1272;22433;-61
2022/10/05 06:59:54;;;;;;;5.10;3.40;;;;;;;10.26;85.57;100113.94;109391;1273;22458;-61
2022/10/05 07:02:29;;;;;;;6.50;3.00;;;;;;;10.31;85.41;100115.90;109278;1273;23262;-61
2022/10/05 07:05:06;;;;;;;6.80;4.30;;;;;;;10.36;84.77;100120.20;109370;1273;22474;-61
2022/10/05 07:07:51;;;;;;;7.50;3.20;;;;;;;10.41;84.61;100118.92;109398;1273;22841;-61
2022/10/05 07:10:33;;;;;;;6.60;3.50;;;;;;;10.45;84.31;100126.86;109382;1271;23127;-68
2022/10/05 07:13:08;;;;;;;5.20;4.10;;;;;;;10.51;83.91;100128.47;109416;1271;22463;-65
2022/10/05 07:15:40;;;;;;;4.40;3.20;;;;;;;10.56;83.65;100136.60;109373;1271;23875;-63
2022/10/05 07:18:17;;;;;;;7.00;3.10;;;;;;;10.60;83.32;100137.99;109340;1271;22425;-63
2022/10/05 07:21:14;;;;;;;6.40;2.80;;;;;;;10.63;82.95;100139.39;109413;1270;22447;-64
2022/10/05 07:23:43;;;;;;;5.30;2.70;;;;;;;10.67;82.82;100142.06;109399;1271;22802;-63
2022/10/05 07:26:16;;;;;;;5.20;3.60;;;;;;;10.72;83.10;100145.42;109368;1271;23666;-64
2022/10/05 07:28:47;;;;;;;5.10;3.40;;;;;;;10.79;82.85;100147.86;109435;1271;22409;-64
2022/10/05 07:31:17;;;;;;;7.70;3.10;;;;;;;10.85;82.21;100148.72;109374;1273;23557;-63
2022/10/05 07:33:47;;;;;;;4.40;3.00;;;;;;;10.90;81.90;100156.19;109352;1271;22530;-63
2022/10/05 07:39:48;;;;;;;5.60;4.00;;;;;;;10.97;81.34;100163.39;109382;1272;23340;-64
2022/10/05 07:43:02;;;;;;;5.40;3.60;;;;;;;11.01;80.29;100167.66;109058;1277;22528;-63
2022/10/05 07:46:13;;;;;;;6.80;2.80;;;;;;;11.07;80.14;100174.86;108489;1282;23588;-63
2022/10/05 07:48:58;;;;;;;8.70;2.70;;;;;;;11.13;80.30;100176.38;107863;1287;22739;-63
2022/10/05 07:51:33;;;;;;;8.80;4.40;;;;;;;11.19;79.00;100180.05;108017;1287;22563;-61
2022/10/05 07:54:15;;;;;;;6.90;2.70;;;;;;;11.21;78.05;100174.26;108118;1287;22496;-61
2022/10/05 07:56:44;;;;;;;9.10;3.40;;;;;;;11.24;78.44;100171.34;108042;1287;22536;-61
2022/10/05 07:59:55;;;;;;;6.40;2.90;;;;;;;11.30;78.94;100166.77;107018;1287;1272541;-61
2022/10/05 08:03:55;;;;;;;6.40;3.70;;;;;;;11.46;78.46;100162.05;102023;1306;545178;-60
2022/10/05 08:06:47;;;;;;;7.80;2.50;;;;;;;11.52;77.71;100158.83;108452;1284;22622;-61
2022/10/05 08:09:29;;;;;;;6.30;2.50;;;;;;;11.55;76.82;100155.74;108291;1283;22480;-60
2022/10/05 08:12:11;;;;;;;8.10;3.40;;;;;;;11.54;76.33;100156.95;108464;1283;22480;-60
2022/10/05 08:14:50;;;;;;;8.10;2.50;;;;;;;11.53;76.24;100159.63;108449;1283;23706;-61
2022/10/05 08:17:47;;;;;;;15.60;9.50;;;;;;;11.54;75.54;100161.09;107594;1283;1203775;-61
2022/10/05 08:20:17;;;;;;;6.80;3.70;;;;;;;11.54;75.87;100161.86;108652;1283;22270;-62
2022/10/05 08:23:32;;;;;;;6.10;3.40;;;;;;;11.56;75.88;100168.55;108695;1281;23659;-62
2022/10/05 08:26:21;;;;;;;4.00;2.20;;;;;;;11.58;75.91;100166.45;108122;1288;22434;-61
2022/10/05 08:29:15;;;;;;;5.60;2.20;;;;;;;11.58;75.24;100170.20;108670;1281;22673;-59
2022/10/05 08:31:44;;;;;;;5.60;2.70;;;;;;;11.53;75.22;100175.88;108766;1281;22478;-62
2022/10/05 08:34:20;;;;;;;3.90;2.20;;;;;;;11.49;75.67;100175.71;108424;1281;22457;-62
2022/10/05 08:37:03;;;;;;;8.80;2.60;;;;;;;11.50;76.08;100171.30;108608;1281;22482;-62
2022/10/05 08:39:39;;;;;;;5.10;1.50;;;;;;;11.55;76.65;100171.16;108692;1281;22628;-64
2022/10/05 08:42:43;;;;;;;6.30;2.40;;;;;;;11.66;76.08;100173.91;108584;1281;22583;-62
2022/10/05 08:45:28;;;;;;;3.60;2.00;;;;;;;11.77;74.87;100177.64;108756;1280;22462;-63
2022/10/05 08:48:16;;;;;;;4.80;1.50;;;;;;;11.84;74.14;100184.25;108768;1280;22443;-63
2022/10/05 08:51:00;;;;;;;4.10;1.80;;;;;;;11.88;73.48;100191.67;108780;1280;22551;-63
2022/10/05 08:53:41;;;;;;;2.50;1.70;;;;;;;11.90;73.53;100194.23;108588;1281;22694;-64
2022/10/05 08:56:19;;;;;;;5.90;2.10;;;;;;;11.89;73.33;100196.46;108614;1283;22502;-65
2022/10/05 08:59:14;;;;;;;3.40;2.60;;;;;;;11.88;72.27;100202.89;108576;1283;22545;-63
2022/10/05 09:02:19;;;;;;;2.90;2.00;;;;;;;11.83;72.36;100208.15;108665;1276;22550;-63
2022/10/05 09:05:10;;;;;;;6.40;3.10;;;;;;;11.81;72.90;100212.89;109339;1275;22458;-63
2022/10/05 09:08:14;;;;;;;14.40;7.40;;;;;;;11.80;73.20;100209.20;109334;1274;22457;-62
2022/10/05 09:10:52;;;;;;;6.10;3.10;;;;;;;11.79;72.32;100216.35;109267;1275;22526;-61
2022/10/05 09:13:34;;;;;;;6.00;2.10;;;;;;;11.79;71.57;100218.92;109207;1274;22411;-64
2022/10/05 09:16:22;;;;;;;5.90;2.20;;;;;;;11.80;71.58;100214.78;109246;1275;22526;-64
2022/10/05 09:19:14;;;;;;;5.30;2.30;;;;;;;11.84;71.65;100215.04;109288;1274;22642;-64
2022/10/05 09:21:59;;;;;;;2.80;1.80;;;;;;;11.84;71.62;100210.95;109244;1276;22494;-63
2022/10/05 09:24:26;;;;;;;11.10;2.90;;;;;;;11.85;71.24;100208.89;109138;1276;22465;-62
2022/10/05 09:26:59;;;;;;;;;;;;;;;11.84;70.18;100214.38;109348;1274;23754;-64
2022/10/05 09:29:59;;;;;;;2.60;1.70;;;;;;;11.82;70.51;100205.75;109233;1274;22445;-65
2022/10/05 09:32:38;;;;;;;4.00;2.40;;;;;;;11.83;70.76;100207.88;109126;1274;23217;-65
2022/10/05 09:35:42;;;;;;;3.20;2.30;;;;;;;11.86;71.10;100213.10;109187;1274;22457;-66
2022/10/05 09:38:30;;;;;;;4.20;2.20;;;;;;;11.91;70.26;100218.23;109263;1274;22346;-65
2022/10/05 09:41:22;;;;;;;4.90;2.10;;;;;;;11.94;69.87;100220.13;105902;1276;23058;-60
2022/10/05 09:44:11;;;;;;;409.40;286.80;;;;;;;11.94;70.11;100212.10;104853;1277;22560;-59
2022/10/05 09:46:54;;;;;;;20.90;13.80;;;;;;;11.96;70.86;100215.85;104691;1276;25279;-59
2022/10/05 09:49:27;;;;;;;8.30;4.10;;;;;;;11.99;70.93;100216.42;104889;1276;23077;-61
2022/10/05 09:52:16;;;;;;;6.70;3.10;;;;;;;12.01;71.01;100223.55;109289;1274;22656;-61
2022/10/05 09:55:09;;;;;;;5.10;2.60;;;;;;;12.02;71.04;100222.42;109290;1274;22680;-61
2022/10/05 09:58:14;;;;;;;3.20;1.80;;;;;;;12.02;71.24;100227.89;109320;1274;22443;-62
2022/10/05 10:01:02;;;;;;;5.10;1.90;;;;;;;12.03;71.52;100223.38;109287;1276;22421;-61
2022/10/05 10:04:00;;;;;;;2.80;1.80;;;;;;;12.06;71.58;100220.63;109206;1275;22469;-61
2022/10/05 10:06:51;;;;;;;4.20;1.50;;;;;;;12.09;71.99;100219.70;109228;1274;22613;-62
2022/10/05 10:09:50;;;;;;;3.80;1.40;;;;;;;12.14;72.08;100222.70;109331;1274;22447;-61
2022/10/05 10:12:36;;;;;;;6.10;1.40;;;;;;;12.18;72.03;100221.52;109263;1274;23639;-61
2022/10/05 10:15:05;;;;;;;2.70;1.70;;;;;;;12.21;72.18;100222.17;109275;1274;24734;-62
2022/10/05 10:17:51;;;;;;;8.80;2.30;;;;;;;12.26;71.82;100223.48;109353;1274;22652;-62
2022/10/05 10:20:27;;;;;;;2.70;1.90;;;;;;;12.32;71.63;100224.73;109294;1274;22460;-62
2022/10/05 10:23:09;;;;;;;3.70;2.00;;;;;;;12.36;71.37;100229.59;109171;1274;23494;-61
2022/10/05 10:25:48;;;;;;;3.80;1.80;;;;;;;12.38;70.91;100225.16;109246;1275;22982;-61
2022/10/05 10:28:25;;;;;;;3.20;2.00;;;;;;;12.44;71.82;100224.06;109289;1274;23278;-61
2022/10/05 10:31:10;;;;;;;5.90;1.90;;;;;;;12.52;71.89;100228.44;109304;1274;23253;-61
2022/10/05 10:33:43;;;;;;;6.70;2.00;;;;;;;12.60;71.67;100228.25;109287;1275;22471;-63
2022/10/05 10:36:15;;;;;;;63.70;36.30;;;;;;;12.65;71.14;100232.48;109156;1274;22519;-65
2022/10/05 10:38:59;;;;;;;3.10;2.10;;;;;;;12.70;70.84;100233.05;109121;1274;22405;-64
2022/10/05 10:41:31;;;;;;;4.90;2.00;;;;;;;12.72;70.37;100231.31;109136;1274;22545;-64
2022/10/05 10:44:01;;;;;;;4.40;2.10;;;;;;;12.74;70.55;100230.09;109248;1274;22437;-64
2022/10/05 10:46:56;;;;;;;3.00;1.80;;;;;;;12.78;70.22;100229.25;109263;1276;23239;-64
2022/10/05 10:49:44;;;;;;;3.20;2.00;;;;;;;12.80;69.20;100227.09;109148;1274;22431;-63
2022/10/05 10:52:30;;;;;;;5.80;2.00;;;;;;;12.80;68.91;100224.64;109268;1274;22442;-63
2022/10/05 10:55:21;;;;;;;2.60;1.70;;;;;;;12.81;68.91;100223.27;109296;1274;22394;-63
2022/10/05 10:58:29;;;;;;;4.10;2.10;;;;;;;12.82;68.45;100220.88;109230;1274;22440;-63
2022/10/05 11:01:33;;;;;;;2.50;2.00;;;;;;;12.84;68.71;100218.50;109261;1274;22442;-63
2022/10/05 11:04:12;;;;;;;4.90;2.00;;;;;;;12.87;68.62;100222.19;109267;1274;22524;-63
2022/10/05 11:07:16;;;;;;;3.90;2.00;;;;;;;12.90;68.60;100225.46;109328;1274;22436;-63
2022/10/05 11:10:11;;;;;;;4.90;1.90;;;;;;;12.93;68.45;100223.36;109201;1277;23320;-63
2022/10/05 11:12:43;;;;;;;2.70;1.30;;;;;;;12.95;68.30;100218.90;109324;1275;22477;-62
2022/10/05 11:15:36;;;;;;;3.50;1.70;;;;;;;12.95;68.05;100215.62;109275;1274;23467;-62
2022/10/05 11:18:25;;;;;;;3.70;1.80;;;;;;;12.94;68.05;100214.47;109108;1274;23099;-60
2022/10/05 11:21:03;;;;;;;144.00;88.00;;;;;;;12.92;68.39;100214.38;109286;1274;22477;-58
2022/10/05 11:23:55;;;;;;;76.10;44.60;;;;;;;12.93;68.57;100211.11;109242;1277;23270;-59
2022/10/05 11:26:55;;;;;;;7.60;4.90;;;;;;;12.95;68.65;100209.66;109302;1274;22521;-63
2022/10/05 11:29:48;;;;;;;5.00;2.40;;;;;;;12.97;68.12;100213.41;109298;1274;22481;-63
2022/10/05 11:32:26;;;;;;;7.70;2.50;;;;;;;12.96;67.82;100210.87;109282;1274;22462;-61
2022/10/05 11:35:11;;;;;;;6.10;1.80;;;;;;;12.94;67.84;100210.80;109107;1274;23602;-62
2022/10/05 11:38:03;;;;;;;6.60;2.10;;;;;;;12.93;68.27;100214.06;109295;1274;22352;-62
2022/10/05 11:41:07;;;;;;;4.70;2.00;;;;;;;12.91;67.86;100211.14;109282;1274;22427;-62
2022/10/05 11:43:57;;;;;;;2.80;1.90;;;;;;;12.88;67.95;100212.57;109284;1274;22487;-62
2022/10/05 11:46:37;;;;;;;5.70;2.10;;;;;;;12.86;68.00;100208.27;108471;1284;22292;-63
2022/10/05 11:49:14;;;;;;;5.50;2.30;;;;;;;12.85;67.72;100210.67;108505;1284;23373;-63
2022/10/05 11:52:05;;;;;;;7.40;2.40;;;;;;;12.84;67.85;100209.09;108446;1283;22438;-64
2022/10/05 11:54:41;;;;;;;7.30;4.10;;;;;;;12.84;67.75;100215.60;108503;1282;22458;-63
2022/10/05 11:57:53;;;;;;;3.80;2.10;;;;;;;12.81;67.41;100219.84;108416;1284;22446;-63
2022/10/05 12:00:29;;;;;;;4.00;2.30;;;;;;;12.80;67.52;100227.86;108526;1282;22446;-63
2022/10/05 12:02:58;;;;;;;5.20;2.70;;;;;;;12.77;67.72;100236.04;108646;1282;23260;-64
2022/10/05 12:05:35;;;;;;;7.60;2.80;;;;;;;12.75;68.10;100237.10;108699;1284;23623;-63
2022/10/05 12:08:26;;;;;;;5.90;2.50;;;;;;;12.75;67.98;100236.60;108499;1283;22496;-63
2022/10/05 12:11:07;;;;;;;103.70;73.20;;;;;;;12.72;68.09;100236.08;108643;1282;22517;-61
2022/10/05 12:13:37;;;;;;;24.20;15.80;;;;;;;12.71;68.16;100240.76;108420;1284;22415;-63
2022/10/05 12:16:25;;;;;;;7.90;2.90;;;;;;;12.71;68.48;100244.81;108522;1283;22565;-64
2022/10/05 12:18:57;;;;;;;7.10;2.80;;;;;;;12.72;68.55;100251.11;108609;1284;23642;-61
2022/10/05 12:22:02;;;;;;;6.50;2.60;;;;;;;12.72;68.01;100254.51;108499;1281;23251;-62
2022/10/05 12:24:35;;;;;;;7.50;2.10;;;;;;;12.70;67.76;100261.15;108733;1277;22449;-62
2022/10/05 12:27:14;;;;;;;4.50;2.00;;;;;;;12.68;67.47;100260.70;109267;1274;23103;-62
2022/10/05 12:29:55;;;;;;;11.10;2.90;;;;;;;12.67;67.78;100265.98;108993;1277;22557;-62
2022/10/05 12:32:53;;;;;;;5.10;2.90;;;;;;;12.67;67.99;100269.05;109283;1274;22565;-62
2022/10/05 12:35:31;;;;;;;6.10;2.90;;;;;;;12.68;68.29;100272.06;109252;1274;22449;-62
2022/10/05 12:38:24;;;;;;;3.90;2.30;;;;;;;12.68;68.46;100276.61;109277;1274;22301;-62
2022/10/05 12:41:00;;;;;;;5.30;2.30;;;;;;;12.68;68.48;100277.83;109352;1274;22453;-64